Time;durP1;ratioP1;P1;durP2;ratioP2;P2;SDS_P1;SDS_P2;PMS_P1;PMS_P2;Temp;Humidity;BMP_temperature;BMP_pressure;BME280_temperature;BME280_humidity;BME280_pressure;Samples;Min_cycle;Max_cycle;Signal;HPM_P1;HPM_P2
2023/10/24 00:00:13;;;;;;;0.70;0.70;;;11.70;99.90;;;;;;5032371;28;20208;-58
2023/10/24 00:02:39;;;;;;;0.67;0.67;;;11.70;99.90;;;;;;5033414;28;20413;-58
2023/10/24 00:05:06;;;;;;;3.70;0.83;;;11.60;99.90;;;;;;5033189;28;20409;-59
2023/10/24 00:07:31;;;;;;;0.60;0.50;;;11.60;99.90;;;;;;5032743;28;20410;-60
2023/10/24 00:09:57;;;;;;;0.50;0.50;;;11.60;99.90;;;;;;5032921;28;20468;-59
2023/10/24 00:12:23;;;;;;;2.83;0.53;;;11.70;99.90;;;;;;5033144;28;20237;-59
2023/10/24 00:14:48;;;;;;;0.50;0.50;;;11.70;99.90;;;;;;5033110;28;20677;-60
2023/10/24 00:17:14;;;;;;;1.50;0.60;;;11.80;99.90;;;;;;5032764;28;20297;-59
2023/10/24 00:19:40;;;;;;;0.83;0.60;;;11.80;99.90;;;;;;5032878;28;20233;-59
2023/10/24 00:22:05;;;;;;;0.40;0.40;;;11.80;99.90;;;;;;5032878;28;20175;-59
2023/10/24 00:24:31;;;;;;;0.57;0.40;;;11.80;99.90;;;;;;5032917;28;20182;-59
2023/10/24 00:26:57;;;;;;;0.40;0.40;;;11.90;99.90;;;;;;5032647;28;20175;-59
2023/10/24 00:29:23;;;;;;;2.60;2.00;;;11.90;99.90;;;;;;5032423;28;20206;-59
2023/10/24 00:31:49;;;;;;;0.80;0.57;;;11.90;99.90;;;;;;5032781;28;20402;-58
2023/10/24 00:34:16;;;;;;;1.37;1.27;;;12.00;99.90;;;;;;5032688;28;20471;-59
2023/10/24 00:36:43;;;;;;;0.60;0.60;;;12.00;99.90;;;;;;5032532;28;20189;-59
2023/10/24 00:39:09;;;;;;;0.73;0.73;;;12.00;99.90;;;;;;5032573;28;20422;-59
2023/10/24 00:41:35;;;;;;;0.83;0.83;;;11.90;99.90;;;;;;5032597;28;20413;-59
2023/10/24 00:44:01;;;;;;;0.40;0.40;;;11.70;99.90;;;;;;5032575;28;20410;-60
2023/10/24 00:46:28;;;;;;;1.10;1.10;;;11.80;99.90;;;;;;5032405;28;21095;-59
2023/10/24 00:48:54;;;;;;;0.60;0.60;;;11.80;99.90;;;;;;5031909;28;20464;-59
2023/10/24 00:51:20;;;;;;;0.40;0.40;;;11.80;99.90;;;;;;5032348;28;20414;-59
2023/10/24 00:53:48;;;;;;;0.87;0.80;;;11.90;99.90;;;;;;5032402;28;20907;-59
2023/10/24 00:56:14;;;;;;;0.90;0.60;;;11.90;99.90;;;;;;5032209;28;20775;-59
2023/10/24 00:58:41;;;;;;;0.50;0.50;;;11.90;99.90;;;;;;5032014;28;20424;-59
2023/10/24 01:01:12;;;;;;;1.37;0.80;;;11.80;99.90;;;;;;5032297;28;20410;-59
2023/10/24 01:03:38;;;;;;;1.07;0.73;;;11.70;99.90;;;;;;5032219;28;20484;-59
2023/10/24 01:06:05;;;;;;;0.50;0.40;;;11.70;99.90;;;;;;5031986;28;20496;-59
2023/10/24 01:08:31;;;;;;;1.13;0.70;;;11.70;99.90;;;;;;5031798;28;20440;-59
2023/10/24 01:10:57;;;;;;;2.63;1.13;;;11.70;99.90;;;;;;5031883;28;20453;-59
2023/10/24 01:13:23;;;;;;;1.80;0.70;;;11.70;99.90;;;;;;5032071;28;20416;-60
2023/10/24 01:15:49;;;;;;;0.40;0.40;;;11.60;99.90;;;;;;5032030;28;20197;-59
2023/10/24 01:18:14;;;;;;;1.23;0.97;;;11.70;99.90;;;;;;5031534;28;20429;-59
2023/10/24 01:20:40;;;;;;;2.10;0.60;;;11.70;99.90;;;;;;5032000;28;20592;-59
2023/10/24 01:23:09;;;;;;;2.37;0.93;;;11.60;99.90;;;;;;5032010;28;20206;-59
2023/10/24 01:25:39;;;;;;;0.50;0.47;;;11.50;99.90;;;;;;5031958;28;20210;-59
2023/10/24 01:28:06;;;;;;;0.80;0.57;;;11.50;99.90;;;;;;5031613;28;20462;-59
2023/10/24 01:30:32;;;;;;;2.73;1.13;;;11.60;99.90;;;;;;5031796;28;20879;-59
2023/10/24 01:32:58;;;;;;;0.97;0.63;;;11.60;99.90;;;;;;5031672;28;20788;-59
2023/10/24 01:35:24;;;;;;;0.70;0.47;;;11.70;99.90;;;;;;5031702;28;20418;-59
2023/10/24 01:37:49;;;;;;;0.50;0.47;;;11.80;99.90;;;;;;5031441;28;20174;-59
2023/10/24 01:40:15;;;;;;;0.50;0.50;;;11.80;99.90;;;;;;5031799;28;20166;-59
2023/10/24 01:42:40;;;;;;;3.20;1.97;;;11.80;99.90;;;;;;5031603;28;20185;-59
2023/10/24 01:45:07;;;;;;;0.53;0.53;;;11.80;99.90;;;;;;5031680;28;20181;-59
2023/10/24 01:47:33;;;;;;;0.80;0.80;;;11.70;99.90;;;;;;5031237;28;20269;-59
2023/10/24 01:49:59;;;;;;;0.40;0.40;;;11.80;99.90;;;;;;5031363;28;20557;-59
2023/10/24 01:52:24;;;;;;;0.40;0.40;;;11.80;99.90;;;;;;5031666;28;20435;-59
2023/10/24 01:54:50;;;;;;;0.40;0.40;;;11.80;99.90;;;;;;5031656;28;20519;-59
2023/10/24 01:57:16;;;;;;;0.40;0.40;;;11.90;99.90;;;;;;5031360;28;20710;-59
2023/10/24 01:59:42;;;;;;;0.50;0.50;;;11.90;99.90;;;;;;5031520;28;20209;-60
2023/10/24 02:02:07;;;;;;;0.50;0.50;;;11.90;99.90;;;;;;5031434;28;20421;-59
2023/10/24 02:04:33;;;;;;;0.67;0.67;;;11.90;99.90;;;;;;5031540;28;20258;-60
2023/10/24 02:06:59;;;;;;;0.93;0.60;;;12.00;99.90;;;;;;5031402;28;20167;-60
2023/10/24 02:09:24;;;;;;;0.50;0.50;;;12.10;99.90;;;;;;5031105;28;20213;-59
2023/10/24 02:11:50;;;;;;;0.50;0.47;;;12.10;99.90;;;;;;5031575;28;20441;-60
2023/10/24 02:14:16;;;;;;;0.40;0.40;;;12.00;99.90;;;;;;5031468;28;20517;-59
2023/10/24 02:16:41;;;;;;;0.83;0.70;;;12.00;99.90;;;;;;5031282;28;20177;-59
2023/10/24 02:19:07;;;;;;;0.60;0.60;;;12.00;99.90;;;;;;5029607;28;20194;-59
2023/10/24 02:21:32;;;;;;;0.67;0.67;;;12.10;99.90;;;;;;5031324;28;20205;-59
2023/10/24 02:23:58;;;;;;;0.50;0.50;;;12.10;99.90;;;;;;5034840;28;20596;-59
2023/10/24 02:26:24;;;;;;;0.43;0.43;;;12.20;99.90;;;;;;5034991;28;20261;-59
2023/10/24 02:28:49;;;;;;;0.80;0.50;;;12.20;99.90;;;;;;5034795;28;20202;-59
2023/10/24 02:31:15;;;;;;;1.60;0.70;;;12.20;99.90;;;;;;5035037;28;20228;-58
2023/10/24 02:33:41;;;;;;;1.57;0.40;;;12.10;99.90;;;;;;5035007;28;20178;-60
2023/10/24 02:36:11;;;;;;;2.10;1.30;;;12.00;99.90;;;;;;5034790;28;20175;-60
2023/10/24 02:38:37;;;;;;;0.37;0.37;;;12.10;99.90;;;;;;5034566;28;20691;-59
2023/10/24 02:41:03;;;;;;;0.70;0.70;;;12.00;99.90;;;;;;5034891;28;20412;-60
2023/10/24 02:43:29;;;;;;;0.60;0.60;;;12.00;99.90;;;;;;5034773;28;20703;-59
2023/10/24 02:45:56;;;;;;;9.90;0.70;;;12.10;99.90;;;;;;5034740;28;20452;-59
2023/10/24 02:48:21;;;;;;;0.60;0.57;;;12.10;99.90;;;;;;5034157;28;20218;-59
2023/10/24 02:50:54;;;;;;;0.73;0.53;;;12.20;99.90;;;;;;5034565;28;20464;-59
2023/10/24 02:53:20;;;;;;;1.33;1.23;;;12.10;99.90;;;;;;5034648;28;20177;-59
2023/10/24 02:55:46;;;;;;;0.90;0.70;;;12.10;99.90;;;;;;5034653;28;20408;-59
2023/10/24 02:58:11;;;;;;;1.00;0.80;;;12.10;99.90;;;;;;5034570;28;20425;-59
2023/10/24 03:00:37;;;;;;;0.50;0.50;;;12.10;99.90;;;;;;5034429;28;20476;-59
2023/10/24 03:03:03;;;;;;;0.90;0.90;;;12.10;99.90;;;;;;5034355;28;20182;-60
2023/10/24 03:05:28;;;;;;;0.97;0.70;;;12.20;99.90;;;;;;5034448;28;20175;-60
2023/10/24 03:07:54;;;;;;;0.73;0.73;;;12.10;99.90;;;;;;5034081;28;20181;-59
2023/10/24 03:10:20;;;;;;;4.73;1.27;;;12.10;99.90;;;;;;5034226;28;20563;-59
2023/10/24 03:12:46;;;;;;;4.07;1.57;;;12.10;99.90;;;;;;5034254;28;20459;-60
2023/10/24 03:15:11;;;;;;;0.40;0.40;;;12.20;99.90;;;;;;5034197;28;20421;-59
2023/10/24 03:17:37;;;;;;;1.20;0.70;;;12.20;99.90;;;;;;5033864;28;20229;-59
2023/10/24 03:20:05;;;;;;;1.20;1.10;;;12.10;99.90;;;;;;5034165;28;20228;-60
2023/10/24 03:22:31;;;;;;;1.63;0.80;;;12.10;99.90;;;;;;5034364;28;20663;-59
2023/10/24 03:24:56;;;;;;;0.50;0.50;;;12.20;99.90;;;;;;5034188;28;20802;-59
2023/10/24 03:27:22;;;;;;;1.00;1.00;;;12.10;99.90;;;;;;5033769;28;20421;-59
2023/10/24 03:29:48;;;;;;;2.57;1.27;;;12.10;99.90;;;;;;5034295;28;20198;-59
2023/10/24 03:32:14;;;;;;;0.60;0.60;;;12.20;99.90;;;;;;5033824;28;20178;-59
2023/10/24 03:34:40;;;;;;;5.03;0.90;;;12.20;99.90;;;;;;5034027;28;20409;-59
2023/10/24 03:37:06;;;;;;;0.40;0.40;;;12.10;99.90;;;;;;5033711;28;20846;-59
2023/10/24 03:39:31;;;;;;;0.50;0.50;;;12.10;99.90;;;;;;5033530;28;20195;-59
2023/10/24 03:41:57;;;;;;;0.50;0.50;;;12.10;99.90;;;;;;5033741;28;20183;-60
2023/10/24 03:44:23;;;;;;;0.40;0.40;;;12.20;99.90;;;;;;5033693;28;20171;-59
2023/10/24 03:46:49;;;;;;;0.40;0.40;;;12.20;99.90;;;;;;5033441;28;20193;-60
2023/10/24 03:49:15;;;;;;;0.50;0.50;;;12.30;99.90;;;;;;5087392;22;21119;-59
2023/10/24 03:51:41;;;;;;;2.63;0.70;;;12.30;99.90;;;;;;5033135;28;20413;-58
2023/10/24 03:54:06;;;;;;;0.80;0.80;;;12.30;99.90;;;;;;5033067;28;20225;-58
2023/10/24 03:56:32;;;;;;;1.43;1.20;;;12.30;99.90;;;;;;5034178;28;20170;-59
2023/10/24 03:58:59;;;;;;;0.40;0.40;;;12.20;99.90;;;;;;5032761;28;20182;-58
2023/10/24 04:01:24;;;;;;;1.60;1.50;;;12.20;99.90;;;;;;5033270;28;20405;-58
2023/10/24 04:03:50;;;;;;;0.87;0.83;;;12.10;99.90;;;;;;5032986;28;20745;-58
2023/10/24 04:06:16;;;;;;;1.10;0.50;;;12.10;99.90;;;;;;5032869;28;20178;-59
2023/10/24 04:08:42;;;;;;;2.73;1.67;;;12.20;99.90;;;;;;5032567;28;20197;-58
2023/10/24 04:11:15;;;;;;;0.50;0.50;;;12.30;99.90;;;;;;5032733;28;20449;-58
2023/10/24 04:13:45;;;;;;;0.97;0.93;;;12.30;99.90;;;;;;5032704;28;20530;-58
2023/10/24 04:16:12;;;;;;;0.43;0.43;;;12.30;99.90;;;;;;5032690;28;20437;-58
2023/10/24 04:18:38;;;;;;;1.60;0.77;;;12.30;99.90;;;;;;5032402;28;20453;-59
2023/10/24 04:21:04;;;;;;;0.60;0.57;;;12.30;99.90;;;;;;5032674;28;20413;-59
2023/10/24 04:23:29;;;;;;;0.50;0.50;;;12.40;99.90;;;;;;5032618;28;20904;-59
2023/10/24 04:25:55;;;;;;;1.27;1.17;;;12.40;99.90;;;;;;5032506;28;20702;-59
2023/10/24 04:28:21;;;;;;;1.77;0.60;;;12.40;99.90;;;;;;5032047;28;20197;-58
2023/10/24 04:30:47;;;;;;;0.50;0.50;;;12.40;99.90;;;;;;5032352;28;20551;-58
2023/10/24 04:33:13;;;;;;;0.70;0.70;;;12.50;99.90;;;;;;5032167;28;20637;-57
2023/10/24 04:35:47;;;;;;;0.80;0.80;;;12.50;99.90;;;;;;5032162;28;20167;-59
2023/10/24 04:38:13;;;;;;;0.57;0.57;;;12.30;99.90;;;;;;5031296;28;21132;-57
2023/10/24 04:40:39;;;;;;;0.70;0.70;;;12.30;99.90;;;;;;5032025;28;20447;-58
2023/10/24 04:43:06;;;;;;;0.80;0.80;;;12.30;99.90;;;;;;5031509;28;20466;-58
2023/10/24 04:45:32;;;;;;;0.50;0.50;;;12.30;99.90;;;;;;5030933;28;20547;-58
2023/10/24 04:47:59;;;;;;;2.20;0.60;;;12.30;99.90;;;;;;5030982;28;20504;-59
2023/10/24 04:50:25;;;;;;;0.93;0.93;;;12.30;99.90;;;;;;5031299;28;20551;-58
2023/10/24 04:52:52;;;;;;;0.57;0.57;;;12.20;99.90;;;;;;5030709;28;20952;-59
2023/10/24 04:55:17;;;;;;;0.90;0.90;;;12.20;99.90;;;;;;5031264;28;20232;-58
2023/10/24 04:57:44;;;;;;;2.33;1.20;;;12.10;99.90;;;;;;5031146;28;20492;-59
2023/10/24 05:00:13;;;;;;;1.03;0.80;;;12.20;99.90;;;;;;5031877;28;20596;-58
2023/10/24 05:02:39;;;;;;;3.07;0.70;;;12.20;99.90;;;;;;5031949;28;20436;-59
2023/10/24 05:05:06;;;;;;;0.60;0.60;;;12.30;99.90;;;;;;5031835;28;20419;-58
2023/10/24 05:07:32;;;;;;;0.70;0.70;;;12.30;99.90;;;;;;5031614;28;20409;-58
2023/10/24 05:09:57;;;;;;;0.60;0.60;;;12.20;99.90;;;;;;5031619;28;20453;-58
2023/10/24 05:12:23;;;;;;;1.07;1.00;;;12.20;99.90;;;;;;5031800;28;20402;-57
2023/10/24 05:14:48;;;;;;;0.40;0.40;;;12.20;99.90;;;;;;5031751;28;20167;-58
2023/10/24 05:17:14;;;;;;;3.03;0.73;;;12.30;99.90;;;;;;5031524;28;20251;-58
2023/10/24 05:19:41;;;;;;;0.50;0.50;;;12.40;99.90;;;;;;5032546;28;20279;-58
2023/10/24 05:22:10;;;;;;;0.60;0.60;;;12.40;99.90;;;;;;5031537;28;20419;-58
2023/10/24 05:24:38;;;;;;;0.40;0.40;;;12.30;99.90;;;;;;5031531;28;20769;-58
2023/10/24 05:27:05;;;;;;;0.73;0.73;;;12.40;99.90;;;;;;5031415;28;20453;-58
2023/10/24 05:29:34;;;;;;;0.97;0.87;;;12.50;99.90;;;;;;5031255;28;20505;-58
2023/10/24 05:32:00;;;;;;;0.83;0.80;;;12.50;99.90;;;;;;5031553;28;20789;-58
2023/10/24 05:34:29;;;;;;;2.20;0.90;;;12.60;99.90;;;;;;5031556;28;20414;-58
2023/10/24 05:36:55;;;;;;;1.07;1.07;;;12.50;99.90;;;;;;5031187;28;20412;-58
2023/10/24 05:39:21;;;;;;;0.40;0.40;;;12.50;99.90;;;;;;5030772;28;20870;-58
2023/10/24 05:41:47;;;;;;;0.50;0.50;;;12.60;99.90;;;;;;5030837;28;20437;-58
2023/10/24 05:44:14;;;;;;;0.50;0.40;;;12.70;99.90;;;;;;5031445;28;20405;-59
2023/10/24 05:46:40;;;;;;;0.50;0.50;;;12.80;99.90;;;;;;5030915;28;20421;-58
2023/10/24 05:49:06;;;;;;;0.40;0.40;;;12.80;99.90;;;;;;5030530;28;20903;-58
2023/10/24 05:51:32;;;;;;;0.70;0.70;;;12.70;99.90;;;;;;5030924;28;20177;-58
2023/10/24 05:53:58;;;;;;;0.67;0.67;;;12.70;99.90;;;;;;5031485;28;20404;-58
2023/10/24 05:56:24;;;;;;;0.53;0.53;;;12.50;99.90;;;;;;5031055;28;20408;-58
2023/10/24 05:58:50;;;;;;;2.93;0.80;;;12.60;99.90;;;;;;5034425;28;20424;-57
2023/10/24 06:01:15;;;;;;;0.63;0.40;;;12.70;99.90;;;;;;5035012;28;20181;-58
2023/10/24 06:03:41;;;;;;;0.43;0.43;;;12.80;99.90;;;;;;5035219;28;20186;-58
2023/10/24 06:06:07;;;;;;;0.40;0.40;;;12.70;99.90;;;;;;5035117;28;20167;-58
2023/10/24 06:08:33;;;;;;;0.40;0.40;;;12.80;99.90;;;;;;5034858;28;20273;-58
2023/10/24 06:11:01;;;;;;;0.50;0.50;;;12.90;99.90;;;;;;5034973;28;20463;-58
2023/10/24 06:13:27;;;;;;;0.37;0.37;;;12.80;99.90;;;;;;5035031;28;20410;-58
2023/10/24 06:15:53;;;;;;;0.50;0.50;;;12.80;99.90;;;;;;5034971;28;20412;-58
2023/10/24 06:18:19;;;;;;;0.30;0.30;;;12.80;99.90;;;;;;5034541;28;20421;-58
2023/10/24 06:20:47;;;;;;;0.53;0.53;;;12.90;99.90;;;;;;5034866;28;20198;-59
2023/10/24 06:23:13;;;;;;;0.60;0.50;;;12.90;99.90;;;;;;5034799;28;20414;-58
2023/10/24 06:25:42;;;;;;;0.40;0.40;;;13.00;99.90;;;;;;5034845;28;20416;-59
2023/10/24 06:28:09;;;;;;;0.40;0.40;;;13.00;99.90;;;;;;5034417;28;20409;-58
2023/10/24 06:30:35;;;;;;;0.50;0.50;;;13.10;99.90;;;;;;5034391;28;20467;-58
2023/10/24 06:33:02;;;;;;;0.47;0.47;;;13.10;99.90;;;;;;5034561;28;20414;-59
2023/10/24 06:35:28;;;;;;;0.50;0.40;;;13.10;99.90;;;;;;5034601;28;20449;-59
2023/10/24 06:37:53;;;;;;;0.83;0.83;;;13.10;99.90;;;;;;5033829;28;20433;-58
2023/10/24 06:40:19;;;;;;;0.40;0.40;;;13.10;99.90;;;;;;5033116;28;20939;-57
2023/10/24 06:42:45;;;;;;;0.30;0.30;;;13.20;99.90;;;;;;5033366;28;20260;-58
2023/10/24 06:45:11;;;;;;;0.50;0.50;;;13.20;99.90;;;;;;5033347;28;20186;-57
2023/10/24 06:47:37;;;;;;;3.60;1.53;;;13.30;99.90;;;;;;5032879;28;20175;-58
2023/10/24 06:50:04;;;;;;;0.40;0.40;;;13.30;99.90;;;;;;5033080;28;20484;-60
2023/10/24 06:52:30;;;;;;;0.50;0.50;;;13.30;99.90;;;;;;5032795;28;20409;-59
2023/10/24 06:54:57;;;;;;;0.50;0.50;;;13.30;99.90;;;;;;5033838;28;20497;-59
2023/10/24 06:57:23;;;;;;;0.40;0.40;;;13.30;99.90;;;;;;5033958;28;20452;-59
2023/10/24 06:59:48;;;;;;;0.40;0.40;;;13.30;99.90;;;;;;5034097;28;20421;-59
2023/10/24 07:02:14;;;;;;;0.70;0.60;;;13.30;99.90;;;;;;5034068;28;20455;-59
2023/10/24 07:04:40;;;;;;;1.40;1.00;;;13.20;99.90;;;;;;5033805;28;20232;-59
2023/10/24 07:07:06;;;;;;;0.90;0.70;;;13.20;99.90;;;;;;5033992;28;20496;-59
2023/10/24 07:09:32;;;;;;;0.50;0.50;;;13.30;99.90;;;;;;5033225;28;20289;-59
2023/10/24 07:11:58;;;;;;;0.60;0.60;;;13.20;99.90;;;;;;5033995;28;20568;-59
2023/10/24 07:14:24;;;;;;;0.40;0.40;;;13.10;99.90;;;;;;5033735;28;20410;-59
2023/10/24 07:16:51;;;;;;;0.50;0.50;;;13.20;99.90;;;;;;5033664;28;20771;-61
2023/10/24 07:19:17;;;;;;;0.47;0.47;;;13.20;99.90;;;;;;5033449;28;20690;-61
2023/10/24 07:21:43;;;;;;;2.50;0.93;;;13.20;99.90;;;;;;5033317;28;20847;-60
2023/10/24 07:24:09;;;;;;;0.40;0.40;;;13.20;99.90;;;;;;5033930;28;20619;-61
2023/10/24 07:26:34;;;;;;;0.30;0.30;;;13.10;99.90;;;;;;5033617;28;20256;-60
2023/10/24 07:29:00;;;;;;;0.40;0.40;;;13.00;99.90;;;;;;5033346;28;20906;-60
2023/10/24 07:31:26;;;;;;;0.70;0.70;;;12.80;99.90;;;;;;5032892;28;20178;-60
2023/10/24 07:33:51;;;;;;;0.70;0.70;;;12.80;99.90;;;;;;5031950;28;20174;-60
2023/10/24 07:36:17;;;;;;;0.40;0.40;;;12.90;99.90;;;;;;5031919;28;20904;-60
2023/10/24 07:38:43;;;;;;;0.40;0.40;;;12.90;99.90;;;;;;5031712;28;20277;-61
2023/10/24 07:41:10;;;;;;;0.60;0.40;;;12.90;99.90;;;;;;5032193;28;20178;-60
2023/10/24 07:43:36;;;;;;;0.50;0.50;;;12.90;99.90;;;;;;5031821;28;20410;-61
2023/10/24 07:46:02;;;;;;;0.40;0.40;;;12.90;99.90;;;;;;5031540;28;20895;-60
2023/10/24 07:48:28;;;;;;;0.60;0.50;;;12.90;99.90;;;;;;5031989;28;20449;-61
2023/10/24 07:50:55;;;;;;;0.40;0.40;;;13.00;99.90;;;;;;5032410;28;20530;-60
2023/10/24 07:53:22;;;;;;;0.50;0.50;;;13.00;99.90;;;;;;5032237;28;20178;-60
2023/10/24 07:55:49;;;;;;;0.40;0.40;;;13.10;99.90;;;;;;5032392;28;20402;-61
2023/10/24 07:58:18;;;;;;;0.30;0.30;;;13.20;99.90;;;;;;5031958;28;20452;-61
2023/10/24 08:00:47;;;;;;;0.43;0.43;;;13.30;99.90;;;;;;5032712;28;20417;-60
2023/10/24 08:03:14;;;;;;;2.07;1.90;;;13.30;99.90;;;;;;5033133;28;20402;-61
2023/10/24 08:05:40;;;;;;;0.40;0.40;;;13.40;99.90;;;;;;5033039;28;20410;-61
2023/10/24 08:08:06;;;;;;;0.53;0.40;;;13.40;99.90;;;;;;5032672;28;20413;-61
2023/10/24 08:10:32;;;;;;;0.40;0.40;;;13.30;99.90;;;;;;5032884;28;20547;-61
2023/10/24 08:12:59;;;;;;;0.50;0.50;;;13.20;99.90;;;;;;5032847;28;20962;-60
2023/10/24 08:15:25;;;;;;;0.60;0.50;;;13.10;99.90;;;;;;5032742;28;20796;-61
2023/10/24 08:17:51;;;;;;;1.43;0.50;;;13.00;99.90;;;;;;5032473;28;20404;-61
2023/10/24 08:20:17;;;;;;;0.40;0.40;;;13.00;99.90;;;;;;5031862;28;20194;-61
2023/10/24 08:22:43;;;;;;;0.40;0.40;;;13.10;99.90;;;;;;5032703;28;20402;-61
2023/10/24 08:25:09;;;;;;;0.70;0.43;;;13.20;99.90;;;;;;5032623;28;20188;-61
2023/10/24 08:27:34;;;;;;;0.30;0.30;;;13.20;99.90;;;;;;5032302;28;20766;-61
2023/10/24 08:30:00;;;;;;;0.30;0.30;;;13.20;99.90;;;;;;5032397;28;20218;-61
2023/10/24 08:32:26;;;;;;;0.53;0.53;;;13.20;99.90;;;;;;5032400;28;20652;-61
2023/10/24 08:34:52;;;;;;;0.30;0.30;;;13.20;99.90;;;;;;5032027;28;20785;-60
2023/10/24 08:37:17;;;;;;;0.30;0.30;;;13.10;99.90;;;;;;5032155;28;20163;-62
2023/10/24 08:39:43;;;;;;;0.30;0.30;;;13.10;99.90;;;;;;5032233;28;20282;-60
2023/10/24 08:42:13;;;;;;;0.40;0.40;;;13.10;99.90;;;;;;5032172;28;20232;-60
2023/10/24 08:44:40;;;;;;;0.50;0.50;;;13.20;99.90;;;;;;5032224;28;20500;-60
2023/10/24 08:47:07;;;;;;;0.40;0.40;;;13.30;99.90;;;;;;5032025;28;20410;-59
2023/10/24 08:49:36;;;;;;;0.40;0.40;;;13.20;99.90;;;;;;5031428;28;20998;-60
2023/10/24 08:52:02;;;;;;;0.40;0.40;;;13.20;99.90;;;;;;5032162;28;20768;-62
2023/10/24 08:54:27;;;;;;;0.60;0.60;;;13.20;99.90;;;;;;5031592;28;20410;-62
2023/10/24 08:56:54;;;;;;;0.40;0.40;;;13.20;99.90;;;;;;5031244;28;20457;-60
2023/10/24 08:59:21;;;;;;;0.30;0.30;;;13.20;99.90;;;;;;5026970;28;20282;-60
2023/10/24 09:01:49;;;;;;;0.50;0.50;;;13.20;99.90;;;;;;5012129;28;20434;-63
2023/10/24 09:04:16;;;;;;;0.63;0.63;;;13.20;99.90;;;;;;5013838;28;20414;-59
2023/10/24 09:06:42;;;;;;;0.40;0.40;;;13.10;99.90;;;;;;5031566;28;20419;-61
2023/10/24 09:09:07;;;;;;;0.63;0.53;;;13.10;99.90;;;;;;5031279;28;20774;-60
2023/10/24 09:12:04;;;;;;;0.70;0.60;;;13.10;99.90;;;;;;5031454;28;20186;-59
2023/10/24 09:14:30;;;;;;;0.47;0.47;;;13.20;99.90;;;;;;5018196;28;20182;-60
2023/10/24 09:16:58;;;;;;;0.43;0.40;;;13.20;99.90;;;;;;5031269;28;20418;-60
2023/10/24 09:19:26;;;;;;;0.33;0.33;;;13.00;99.90;;;;;;5031416;28;20533;-59
2023/10/24 09:21:52;;;;;;;0.50;0.50;;;13.10;99.90;;;;;;5031605;28;20424;-59
2023/10/24 09:24:19;;;;;;;2.40;0.80;;;13.10;99.90;;;;;;5032079;28;20417;-59
2023/10/24 09:26:55;;;;;;;0.50;0.50;;;13.20;99.90;;;;;;5031413;28;20517;-60
2023/10/24 09:29:24;;;;;;;0.60;0.60;;;13.10;99.90;;;;;;5031036;28;20840;-60
2023/10/24 09:31:50;;;;;;;0.80;0.80;;;13.10;99.90;;;;;;5030802;28;20797;-60
2023/10/24 09:34:17;;;;;;;0.80;0.80;;;13.00;99.90;;;;;;5031348;28;20413;-60
2023/10/24 09:36:44;;;;;;;1.87;0.50;;;13.20;99.90;;;;;;5013512;28;20774;-60
2023/10/24 09:39:13;;;;;;;1.63;1.30;;;13.30;99.90;;;;;;5030592;28;20523;-60
2023/10/24 09:41:44;;;;;;;0.70;0.60;;;13.30;99.90;;;;;;5031175;28;20420;-60
2023/10/24 09:44:10;;;;;;;5.63;1.23;;;13.30;99.90;;;;;;5031247;28;20774;-60
2023/10/24 09:46:37;;;;;;;1.97;0.83;;;13.30;99.90;;;;;;5031280;28;20410;-60
2023/10/24 09:49:05;;;;;;;0.60;0.60;;;13.30;99.90;;;;;;5030781;28;20529;-61
2023/10/24 09:51:32;;;;;;;0.60;0.60;;;13.20;99.90;;;;;;5013756;28;20417;-61
2023/10/24 09:53:59;;;;;;;0.40;0.40;;;13.20;99.90;;;;;;5031432;28;20506;-61
2023/10/24 09:56:26;;;;;;;0.50;0.50;;;13.20;99.90;;;;;;5031219;28;20413;-62
2023/10/24 09:58:52;;;;;;;0.40;0.40;;;13.20;99.90;;;;;;5031087;28;20425;-61
2023/10/24 10:01:18;;;;;;;1.33;0.60;;;13.20;99.90;;;;;;5030954;28;20433;-61
2023/10/24 10:03:44;;;;;;;0.40;0.40;;;13.00;99.90;;;;;;5031189;28;20171;-62
2023/10/24 10:06:16;;;;;;;0.60;0.40;;;12.90;99.90;;;;;;5031102;28;20412;-62
2023/10/24 10:08:42;;;;;;;0.30;0.30;;;12.90;99.90;;;;;;5030841;28;20431;-62
2023/10/24 10:11:08;;;;;;;0.60;0.60;;;13.00;99.90;;;;;;5031295;28;20466;-62
2023/10/24 10:13:50;;;;;;;0.40;0.40;;;13.10;99.90;;;;;;5031155;28;20433;-61
2023/10/24 10:16:29;;;;;;;0.50;0.40;;;13.10;99.90;;;;;;5031134;28;20167;-62
2023/10/24 10:19:14;;;;;;;0.43;0.43;;;13.10;99.90;;;;;;5030992;28;20430;-62
2023/10/24 10:22:05;;;;;;;0.47;0.47;;;13.20;99.90;;;;;;5031082;28;20405;-61
2023/10/24 10:24:46;;;;;;;0.40;0.40;;;13.10;99.90;;;;;;5030125;28;20433;-61
2023/10/24 10:27:33;;;;;;;0.70;0.67;;;13.00;99.90;;;;;;5030226;28;20435;-62
2023/10/24 10:30:20;;;;;;;0.63;0.63;;;13.00;99.90;;;;;;5029053;28;20445;-61
2023/10/24 10:32:46;;;;;;;0.40;0.40;;;13.00;99.90;;;;;;5029333;28;20405;-62
2023/10/24 10:35:12;;;;;;;1.37;1.30;;;13.00;99.90;;;;;;5029847;28;20415;-62
2023/10/24 10:37:38;;;;;;;1.00;0.43;;;13.10;99.90;;;;;;5029460;28;20163;-62
2023/10/24 10:40:17;;;;;;;0.53;0.53;;;13.10;99.90;;;;;;5029628;28;20780;-62
2023/10/24 10:42:47;;;;;;;0.83;0.80;;;13.10;99.90;;;;;;5030186;28;20465;-61
2023/10/24 10:45:27;;;;;;;0.30;0.30;;;13.00;99.90;;;;;;5034217;28;21158;-62
2023/10/24 10:47:56;;;;;;;0.30;0.30;;;13.00;99.90;;;;;;5034070;28;20413;-62
2023/10/24 10:50:30;;;;;;;0.53;0.50;;;13.00;99.90;;;;;;5034084;28;20492;-64
2023/10/24 10:53:18;;;;;;;0.30;0.30;;;12.90;99.90;;;;;;5034376;28;20459;-62
2023/10/24 10:56:07;;;;;;;0.30;0.30;;;12.90;99.90;;;;;;5031598;28;20428;-62
2023/10/24 10:58:51;;;;;;;0.30;0.30;;;13.00;99.90;;;;;;5033200;28;20434;-60
2023/10/24 11:01:38;;;;;;;0.67;0.50;;;13.00;99.90;;;;;;5014124;28;20406;-61
2023/10/24 11:04:14;;;;;;;0.50;0.50;;;13.00;99.90;;;;;;5022588;28;21148;-60
2023/10/24 11:06:57;;;;;;;0.40;0.40;;;12.90;99.90;;;;;;5034183;28;20401;-61
2023/10/24 11:09:30;;;;;;;2.00;0.50;;;12.90;99.90;;;;;;5033993;28;20895;-61
2023/10/24 11:12:20;;;;;;;0.30;0.30;;;12.90;99.90;;;;;;5033438;28;20409;-62
2023/10/24 11:15:05;;;;;;;0.30;0.30;;;12.80;99.90;;;;;;5032421;28;20441;-60
2023/10/24 11:17:31;;;;;;;0.30;0.30;;;12.80;99.90;;;;;;5033681;28;20409;-61
2023/10/24 11:20:02;;;;;;;0.40;0.40;;;12.90;99.90;;;;;;5015345;28;20850;-61
2023/10/24 11:22:31;;;;;;;0.40;0.40;;;12.90;99.90;;;;;;5032888;28;20463;-60
2023/10/24 11:24:56;;;;;;;0.53;0.53;;;13.10;99.90;;;;;;5032819;28;20401;-62
2023/10/24 11:27:23;;;;;;;0.50;0.50;;;13.20;99.90;;;;;;5032663;28;20946;-60
2023/10/24 11:29:52;;;;;;;0.40;0.40;;;13.20;99.90;;;;;;5033559;28;20453;-61
2023/10/24 11:32:19;;;;;;;0.40;0.40;;;13.30;99.90;;;;;;5033693;28;21114;-61
2023/10/24 11:34:46;;;;;;;0.80;0.80;;;13.30;99.90;;;;;;5015795;28;20564;-61
2023/10/24 11:37:12;;;;;;;0.50;0.50;;;13.30;99.90;;;;;;5033272;28;20463;-61
2023/10/24 11:39:41;;;;;;;0.40;0.40;;;13.40;99.90;;;;;;5016081;28;20443;-61
2023/10/24 11:42:07;;;;;;;0.40;0.40;;;13.20;99.90;;;;;;5033568;28;20416;-61
2023/10/24 11:44:33;;;;;;;0.40;0.40;;;13.10;99.90;;;;;;5033862;28;20821;-60
2023/10/24 11:46:59;;;;;;;0.40;0.40;;;13.20;99.90;;;;;;5033363;28;20436;-60
2023/10/24 11:49:37;;;;;;;0.30;0.30;;;13.10;99.90;;;;;;5033144;28;20214;-61
2023/10/24 11:52:05;;;;;;;0.60;0.40;;;13.10;99.90;;;;;;5033455;28;20401;-61
2023/10/24 11:54:30;;;;;;;2.97;0.40;;;13.00;99.90;;;;;;5032522;28;20408;-61
2023/10/24 11:56:57;;;;;;;0.40;0.40;;;12.90;99.90;;;;;;5016542;28;20418;-61
2023/10/24 11:59:23;;;;;;;0.30;0.30;;;12.70;99.90;;;;;;5013210;28;20461;-63
2023/10/24 12:01:49;;;;;;;0.40;0.40;;;12.70;99.90;;;;;;5013115;28;20493;-63
2023/10/24 12:04:15;;;;;;;0.50;0.40;;;12.70;99.90;;;;;;5012190;28;20892;-63
2023/10/24 12:06:41;;;;;;;0.40;0.40;;;12.80;99.90;;;;;;5012783;28;20414;-63
2023/10/24 12:09:07;;;;;;;0.80;0.80;;;12.90;99.90;;;;;;5012593;28;20530;-62
2023/10/24 12:11:34;;;;;;;1.57;0.43;;;12.80;99.90;;;;;;5012613;28;20410;-63
2023/10/24 12:14:00;;;;;;;0.70;0.60;;;12.90;99.90;;;;;;5013117;28;20167;-62
2023/10/24 12:16:29;;;;;;;0.30;0.30;;;13.10;99.90;;;;;;5012916;28;20492;-63
2023/10/24 12:18:55;;;;;;;0.47;0.47;;;13.10;99.90;;;;;;5012546;28;20426;-63
2023/10/24 12:21:21;;;;;;;0.30;0.30;;;13.10;99.90;;;;;;5012718;28;20428;-63
2023/10/24 12:23:46;;;;;;;0.37;0.37;;;13.20;99.90;;;;;;5012673;28;20317;-62
2023/10/24 12:26:12;;;;;;;0.50;0.50;;;13.20;99.90;;;;;;5012586;28;20209;-62
2023/10/24 12:28:42;;;;;;;0.70;0.57;;;13.20;99.90;;;;;;5012750;28;20615;-62
2023/10/24 12:31:08;;;;;;;0.63;0.53;;;13.30;99.90;;;;;;5012330;28;20257;-62
2023/10/24 12:33:34;;;;;;;0.60;0.60;;;13.40;99.90;;;;;;5012682;28;20432;-62
2023/10/24 12:36:00;;;;;;;0.60;0.50;;;13.50;99.90;;;;;;5012485;28;20445;-62
2023/10/24 12:38:27;;;;;;;0.50;0.50;;;13.50;99.90;;;;;;5012176;28;20803;-62
2023/10/24 12:40:52;;;;;;;0.40;0.40;;;13.50;99.90;;;;;;5012682;28;20792;-62
2023/10/24 12:43:18;;;;;;;0.30;0.30;;;13.50;99.90;;;;;;5012583;28;20440;-62
2023/10/24 12:45:44;;;;;;;0.30;0.30;;;13.40;99.90;;;;;;5012577;28;20180;-63
2023/10/24 12:48:13;;;;;;;0.40;0.40;;;13.40;99.90;;;;;;5011778;28;20181;-62